WAOO/BDJ METAR and TAF weather

Enter ICAO airport designator
Station Type Date Time Source
WAOO METAR 2018/12/13 06:30 UTC NOAA

WAOO 130630Z 01002KT 9999 SCT017 31/24 Q1007


Station Type Date Time Source
WAOO Decoded METAR 2018/12/13 06:30 UTC NOAA

Station name not available
Dec 13, 2018 - 01:30 AM EST / 2018.12.13 0630 UTC
Wind: from the N (010 degrees) at 2 MPH (2 KT):0
Visibility: greater than 7 mile(s):0
Sky conditions: partly cloudy
Temperature: 87 F (31 C)
Heat index: 95.7 F (35.4 C):1
Dew Point: 75 F (24 C)
Relative Humidity: 66%
Pressure (altimeter): 29.74 in. Hg (1007 hPa)
ob: WAOO 130630Z 01002KT 9999 SCT017 31/24 Q1007
cycle: 6

Station Type Date Time Source
WAOO TAF 2018/12/13 06:30 UTC NOAA

TAF WAOO 130500Z 1306/1406 06005KT 9999 SCT018
TEMPO 1306/1310 24015KT 4000 TSRA FEW015CB
BECMG 1314/1316 00000KT


Example: see airport list